Time;durP1;ratioP1;P1;durP2;ratioP2;P2;SDS_P1;SDS_P2;PMS_P1;PMS_P2;Temp;Humidity;BMP_temperature;BMP_pressure;BME280_temperature;BME280_humidity;BME280_pressure;Samples;Min_cycle;Max_cycle;Signal;HPM_P1;HPM_P2
2021/01/08 00:02:19;;;;;;;9.90;7.07;;;4.60;1.00;;;;;;5123472;27;20249;-59
2021/01/08 00:04:44;;;;;;;7.77;6.33;;;4.60;1.00;;;;;;5128533;27;20447;-59
2021/01/08 00:07:11;;;;;;;8.80;6.77;;;4.50;1.00;;;;;;5120278;27;20435;-59
2021/01/08 00:09:37;;;;;;;9.43;7.03;;;4.50;1.00;;;;;;5124372;27;20523;-58
2021/01/08 00:12:02;;;;;;;9.93;5.73;;;4.70;1.00;;;;;;5130010;27;20989;-59
2021/01/08 00:14:28;;;;;;;9.50;5.40;;;4.60;1.00;;;;;;5123113;27;20182;-59
2021/01/08 00:16:54;;;;;;;8.33;6.70;;;4.70;1.00;;;;;;5126580;27;20200;-58
2021/01/08 00:19:19;;;;;;;7.50;6.13;;;4.90;1.00;;;;;;5131278;27;20196;-59
2021/01/08 00:21:45;;;;;;;7.20;5.13;;;4.90;1.00;;;;;;5123373;27;20205;-59
2021/01/08 00:24:14;;;;;;;9.20;6.27;;;4.80;1.00;;;;;;5123021;27;20272;-59
2021/01/08 00:26:40;;;;;;;7.83;6.20;;;4.80;1.00;;;;;;5121679;27;20182;-59
2021/01/08 00:29:08;;;;;;;8.03;6.10;;;4.80;1.00;;;;;;5127654;27;20459;-59
2021/01/08 00:31:41;;;;;;;9.57;6.97;;;4.90;1.00;;;;;;5127805;27;20480;-58
2021/01/08 00:34:08;;;;;;;9.03;6.00;;;4.80;1.00;;;;;;5122161;27;20512;-58
2021/01/08 00:36:35;;;;;;;7.47;5.73;;;4.60;1.00;;;;;;5122345;27;20462;-58
2021/01/08 00:39:02;;;;;;;8.47;6.03;;;4.70;1.00;;;;;;5121047;27;20901;-59
2021/01/08 00:41:35;;;;;;;9.00;6.00;;;4.80;1.00;;;;;;5116608;27;21014;-59
2021/01/08 00:44:01;;;;;;;10.63;6.17;;;;;;;;;;5122628;27;20442;-59
2021/01/08 00:46:34;;;;;;;6.80;5.70;;;4.80;1.00;;;;;;5124963;27;20462;-58
2021/01/08 00:49:01;;;;;;;8.63;6.30;;;4.80;1.00;;;;;;5126466;27;20438;-59
2021/01/08 00:51:27;;;;;;;9.03;6.43;;;4.80;1.00;;;;;;5118419;27;20439;-58
2021/01/08 00:53:53;;;;;;;8.43;5.63;;;4.80;1.00;;;;;;5121506;27;20439;-58
2021/01/08 00:56:19;;;;;;;7.40;5.30;;;4.90;1.00;;;;;;5126642;27;20439;-59
2021/01/08 00:58:45;;;;;;;8.93;6.30;;;4.70;1.00;;;;;;5117988;27;20664;-58
2021/01/08 01:01:11;;;;;;;8.13;6.10;;;4.70;1.00;;;;;;5124192;27;20471;-58
2021/01/08 01:03:37;;;;;;;7.90;6.20;;;4.80;1.00;;;;;;5116257;27;20527;-58
2021/01/08 01:06:03;;;;;;;10.27;6.90;;;4.80;1.00;;;;;;5122706;27;20589;-58
2021/01/08 01:08:28;;;;;;;7.77;6.00;;;4.80;1.00;;;;;;5123800;27;20273;-58
2021/01/08 01:10:54;;;;;;;8.27;5.57;;;4.80;1.00;;;;;;5121886;27;20905;-59
2021/01/08 01:13:20;;;;;;;8.97;6.70;;;4.80;1.00;;;;;;5127815;27;20196;-58
2021/01/08 01:15:45;;;;;;;9.03;6.67;;;4.70;1.00;;;;;;5115867;27;20192;-58
2021/01/08 01:18:11;;;;;;;9.20;5.90;;;4.70;1.00;;;;;;5114188;27;20189;-58
2021/01/08 01:20:36;;;;;;;7.40;5.20;;;4.70;1.00;;;;;;5121386;27;20204;-59
2021/01/08 01:23:03;;;;;;;6.80;5.50;;;4.80;1.00;;;;;;5126254;27;20574;-59
2021/01/08 01:25:29;;;;;;;7.97;5.67;;;4.90;1.00;;;;;;5114281;27;20182;-58
2021/01/08 01:27:55;;;;;;;8.33;5.90;;;4.90;1.00;;;;;;5120505;27;20493;-59
2021/01/08 01:30:21;;;;;;;8.57;5.83;;;4.80;1.00;;;;;;5116763;27;20964;-59
2021/01/08 01:32:46;;;;;;;7.27;4.87;;;4.80;1.00;;;;;;5127130;27;20542;-60
2021/01/08 01:35:12;;;;;;;6.30;4.87;;;4.90;1.00;;;;;;5098770;27;20453;-59
2021/01/08 01:37:38;;;;;;;9.33;5.70;;;4.90;1.00;;;;;;5117711;27;20192;-58
2021/01/08 01:40:04;;;;;;;9.03;6.10;;;4.90;1.00;;;;;;5118103;27;20680;-58
2021/01/08 01:42:30;;;;;;;8.30;5.80;;;4.70;1.00;;;;;;5117189;27;20202;-59
2021/01/08 01:44:56;;;;;;;8.40;5.87;;;4.70;1.00;;;;;;5120566;27;20945;-59
2021/01/08 01:47:22;;;;;;;7.77;5.43;;;4.60;1.00;;;;;;5115764;27;20183;-58
2021/01/08 01:49:48;;;;;;;7.10;5.70;;;4.70;1.00;;;;;;5119687;27;20274;-58
2021/01/08 01:52:14;;;;;;;7.47;5.43;;;4.80;1.00;;;;;;5119378;27;20867;-59
2021/01/08 01:54:40;;;;;;;11.63;6.70;;;4.80;1.00;;;;;;5115502;27;20525;-58
2021/01/08 01:57:06;;;;;;;7.90;5.60;;;4.80;1.00;;;;;;5118760;27;20190;-59
2021/01/08 01:59:31;;;;;;;7.13;5.70;;;4.80;1.00;;;;;;5116965;27;20439;-58
2021/01/08 02:02:00;;;;;;;7.10;5.83;;;4.90;1.00;;;;;;5114624;27;20201;-58
2021/01/08 02:04:27;;;;;;;7.23;4.87;;;4.70;1.00;;;;;;5122579;27;20207;-59
2021/01/08 02:06:53;;;;;;;8.80;5.50;;;4.80;1.00;;;;;;5121517;27;20433;-59
2021/01/08 02:09:20;;;;;;;7.80;5.73;;;4.70;1.00;;;;;;5121810;27;20794;-59
2021/01/08 02:11:51;;;;;;;8.87;6.43;;;4.80;1.00;;;;;;5121514;27;20454;-58
2021/01/08 02:14:23;;;;;;;8.77;5.73;;;3.80;1.00;;;;;;5122078;27;20442;-58
2021/01/08 02:16:51;;;;;;;9.17;5.90;;;4.80;1.00;;;;;;5120246;27;20524;-59
2021/01/08 02:19:25;;;;;;;9.00;5.47;;;4.70;1.00;;;;;;5116457;27;20410;-58
2021/01/08 02:22:03;;;;;;;8.90;6.60;;;4.70;1.00;;;;;;5112836;27;20527;-58
2021/01/08 02:24:41;;;;;;;10.20;6.67;;;4.70;1.00;;;;;;5120936;27;20893;-59
2021/01/08 02:27:07;;;;;;;7.90;6.20;;;4.80;1.00;;;;;;5111511;28;20492;-58
2021/01/08 02:29:33;;;;;;;8.70;6.40;;;4.70;1.00;;;;;;5117757;28;20517;-59
2021/01/08 02:31:58;;;;;;;8.63;5.80;;;4.90;1.00;;;;;;5132662;27;20459;-60
2021/01/08 02:34:25;;;;;;;8.50;5.60;;;4.80;1.00;;;;;;5120268;28;20440;-58
2021/01/08 02:36:52;;;;;;;7.47;5.20;;;4.70;1.00;;;;;;5128153;28;20188;-59
2021/01/08 02:39:19;;;;;;;8.20;6.30;;;4.80;1.00;;;;;;5117315;28;20500;-59
2021/01/08 02:41:47;;;;;;;8.20;5.93;;;4.70;1.00;;;;;;5117150;28;20552;-60
2021/01/08 02:44:17;;;;;;;7.10;6.07;;;4.80;1.00;;;;;;5116622;28;20486;-58
2021/01/08 02:46:46;;;;;;;9.30;6.87;;;4.80;1.00;;;;;;5120009;28;20959;-60
2021/01/08 02:49:12;;;;;;;10.90;6.60;;;4.80;1.00;;;;;;5122508;28;20470;-59
2021/01/08 02:51:39;;;;;;;8.50;6.57;;;4.80;1.00;;;;;;5121797;28;20893;-59
2021/01/08 02:54:06;;;;;;;7.53;6.07;;;4.70;1.00;;;;;;5117832;27;20498;-58
2021/01/08 02:56:38;;;;;;;10.40;7.17;;;4.70;1.00;;;;;;5119156;27;20434;-59
2021/01/08 02:59:05;;;;;;;8.60;5.90;;;4.70;1.00;;;;;;5117710;28;20867;-58
2021/01/08 03:01:32;;;;;;;7.13;4.93;;;4.70;1.00;;;;;;5119744;28;20471;-58
2021/01/08 03:04:00;;;;;;;8.87;5.97;;;4.70;1.00;;;;;;5114479;27;20447;-59
2021/01/08 03:06:28;;;;;;;9.97;6.00;;;4.70;1.00;;;;;;5122038;28;20428;-58
2021/01/08 03:08:54;;;;;;;7.20;5.10;;;4.70;1.00;;;;;;5117636;27;20465;-59
2021/01/08 03:11:19;;;;;;;8.50;6.63;;;4.70;1.00;;;;;;5119045;27;20953;-58
2021/01/08 03:13:45;;;;;;;8.27;5.97;;;4.80;1.00;;;;;;5123166;28;20432;-60
2021/01/08 03:16:11;;;;;;;6.80;5.67;;;4.70;1.00;;;;;;5115361;27;20239;-58
2021/01/08 03:18:37;;;;;;;6.50;5.87;;;4.80;1.00;;;;;;5115442;28;20480;-58
2021/01/08 03:21:02;;;;;;;7.20;6.10;;;4.80;1.00;;;;;;5133837;27;20280;-59
2021/01/08 03:23:28;;;;;;;8.87;5.97;;;4.80;1.00;;;;;;5134396;27;20185;-59
2021/01/08 03:25:54;;;;;;;8.40;5.67;;;4.80;1.00;;;;;;5133063;27;20181;-59
2021/01/08 03:28:19;;;;;;;8.13;5.93;;;4.80;1.00;;;;;;5129501;27;20230;-59
2021/01/08 03:30:45;;;;;;;7.37;5.80;;;4.90;1.00;;;;;;5121973;27;20645;-59
2021/01/08 03:33:11;;;;;;;7.53;5.70;;;4.90;1.00;;;;;;5123307;27;20276;-58
2021/01/08 03:35:37;;;;;;;8.77;6.23;;;4.90;1.00;;;;;;5127537;27;20774;-59
2021/01/08 03:38:03;;;;;;;9.00;6.17;;;4.90;1.00;;;;;;5123765;27;20231;-58
2021/01/08 03:40:28;;;;;;;10.07;6.53;;;4.80;1.00;;;;;;5109585;27;20477;-58
2021/01/08 03:42:54;;;;;;;8.50;5.40;;;4.80;1.00;;;;;;5132052;27;20174;-58
2021/01/08 03:45:19;;;;;;;8.77;6.40;;;4.90;1.00;;;;;;5127730;27;20642;-58
2021/01/08 03:47:45;;;;;;;7.70;5.97;;;4.80;1.00;;;;;;5115121;28;20181;-58
2021/01/08 03:50:11;;;;;;;7.83;6.37;;;4.80;1.00;;;;;;5132598;27;20332;-58
2021/01/08 03:52:36;;;;;;;7.40;5.73;;;4.80;1.00;;;;;;5129990;27;20170;-59
2021/01/08 03:55:02;;;;;;;9.30;6.67;;;4.80;1.00;;;;;;5129703;27;20226;-59
2021/01/08 03:57:28;;;;;;;8.53;6.70;;;4.70;1.00;;;;;;5129833;27;20701;-58
2021/01/08 03:59:53;;;;;;;8.80;7.50;;;4.80;1.00;;;;;;5129612;27;20443;-59
2021/01/08 04:02:19;;;;;;;11.37;6.93;;;4.80;1.00;;;;;;5125408;27;20235;-59
2021/01/08 04:04:44;;;;;;;7.30;6.27;;;4.70;1.00;;;;;;5129982;27;20303;-58
2021/01/08 04:07:10;;;;;;;10.63;7.10;;;4.80;1.00;;;;;;5124282;27;20182;-58
2021/01/08 04:09:36;;;;;;;8.50;6.37;;;4.50;1.00;;;;;;5126068;27;20177;-58
2021/01/08 04:12:01;;;;;;;9.07;7.10;;;4.70;1.00;;;;;;5120699;27;20703;-58
2021/01/08 04:14:27;;;;;;;8.00;6.40;;;4.70;1.00;;;;;;5116560;27;20220;-58
2021/01/08 04:16:52;;;;;;;10.30;7.43;;;4.70;1.00;;;;;;5132469;27;20181;-59
2021/01/08 04:19:18;;;;;;;7.17;6.43;;;4.70;1.00;;;;;;5128644;27;20281;-58
2021/01/08 04:21:45;;;;;;;8.80;6.70;;;4.70;1.00;;;;;;5126169;27;20552;-58
2021/01/08 04:24:12;;;;;;;8.73;6.43;;;4.70;1.00;;;;;;5126778;27;20212;-58
2021/01/08 04:26:37;;;;;;;7.23;6.47;;;4.60;1.00;;;;;;5120920;27;20758;-58
2021/01/08 04:29:03;;;;;;;8.53;6.50;;;4.70;1.00;;;;;;5126626;27;20442;-58
2021/01/08 04:31:29;;;;;;;9.37;7.73;;;4.70;1.00;;;;;;5120071;27;20502;-58
2021/01/08 04:33:54;;;;;;;8.17;7.03;;;4.70;1.00;;;;;;5121677;27;20586;-58
2021/01/08 04:36:20;;;;;;;10.07;6.80;;;4.60;1.00;;;;;;5125137;27;20187;-58
2021/01/08 04:38:46;;;;;;;8.90;7.20;;;4.70;1.00;;;;;;5124754;27;20181;-58
2021/01/08 04:41:12;;;;;;;10.67;7.80;;;4.70;1.00;;;;;;5113641;27;20229;-58
2021/01/08 04:43:38;;;;;;;9.40;6.87;;;4.80;1.00;;;;;;5123623;27;20177;-58
2021/01/08 04:46:16;;;;;;;9.50;7.00;;;4.80;1.00;;;;;;5120979;27;20181;-59
2021/01/08 04:48:42;;;;;;;9.57;7.80;;;4.80;1.00;;;;;;5118540;27;20491;-58
2021/01/08 04:51:11;;;;;;;8.97;8.00;;;4.80;1.00;;;;;;5116135;27;20520;-59
2021/01/08 04:53:37;;;;;;;9.60;6.67;;;4.70;1.00;;;;;;5118323;27;20446;-58
2021/01/08 04:56:07;;;;;;;9.90;7.43;;;4.70;1.00;;;;;;5118248;27;20431;-58
2021/01/08 04:58:33;;;;;;;10.27;6.90;;;4.70;1.00;;;;;;5124516;27;20424;-58
2021/01/08 05:01:03;;;;;;;8.90;7.33;;;4.70;1.00;;;;;;5123391;27;20964;-58
2021/01/08 05:03:29;;;;;;;8.10;6.43;;;4.60;1.00;;;;;;5113084;28;20443;-60
2021/01/08 05:05:59;;;;;;;8.07;6.23;;;4.70;1.00;;;;;;5111880;28;20451;-59
2021/01/08 05:08:25;;;;;;;7.87;6.40;;;4.70;1.00;;;;;;5112035;28;20442;-59
2021/01/08 05:10:51;;;;;;;8.90;6.57;;;4.70;1.00;;;;;;5111930;28;20537;-60
2021/01/08 05:13:17;;;;;;;9.97;6.83;;;4.60;1.00;;;;;;5112268;28;20785;-57
2021/01/08 05:15:52;;;;;;;8.53;6.30;;;4.60;1.00;;;;;;5126841;27;20654;-58
2021/01/08 05:18:20;;;;;;;9.20;7.77;;;4.70;1.00;;;;;;5123975;27;20480;-58
2021/01/08 05:20:50;;;;;;;8.30;6.70;;;4.60;1.00;;;;;;5121074;27;21020;-59
2021/01/08 05:23:16;;;;;;;10.17;7.07;;;4.60;1.00;;;;;;5120626;27;20435;-59
2021/01/08 05:25:45;;;;;;;7.30;6.13;;;4.70;1.00;;;;;;5114344;27;20493;-59
2021/01/08 05:28:11;;;;;;;9.30;6.73;;;4.70;1.00;;;;;;5122406;27;20487;-59
2021/01/08 05:30:37;;;;;;;11.33;7.40;;;4.70;1.00;;;;;;5128199;27;20462;-59
2021/01/08 05:33:06;;;;;;;11.90;8.30;;;4.80;1.00;;;;;;5127012;27;20182;-59
2021/01/08 05:35:33;;;;;;;10.33;7.90;;;4.90;1.00;;;;;;5118095;27;20442;-59
2021/01/08 05:38:05;;;;;;;10.57;7.10;;;4.90;1.00;;;;;;5116254;27;20447;-58
2021/01/08 05:40:32;;;;;;;8.87;6.90;;;5.10;1.00;;;;;;5115132;27;20977;-58
2021/01/08 05:43:00;;;;;;;10.20;7.20;;;5.00;1.00;;;;;;5122575;27;21015;-58
2021/01/08 05:45:28;;;;;;;9.20;7.73;;;4.90;1.00;;;;;;5113139;28;20780;-59
2021/01/08 05:47:58;;;;;;;14.23;8.17;;;5.00;1.00;;;;;;5121662;27;20434;-58
2021/01/08 05:50:25;;;;;;;9.13;6.70;;;5.10;1.00;;;;;;5124052;27;20438;-58
2021/01/08 05:52:58;;;;;;;12.43;8.93;;;5.10;1.00;;;;;;5118344;27;20475;-58
2021/01/08 05:55:26;;;;;;;11.60;7.00;;;5.10;1.00;;;;;;5125498;27;20475;-59
2021/01/08 05:57:53;;;;;;;11.65;9.10;;;5.00;1.00;;;;;;5120707;27;20434;-59
2021/01/08 06:00:19;;;;;;;11.13;9.30;;;5.10;1.00;;;;;;5123464;27;20171;-58
2021/01/08 06:02:48;;;;;;;9.17;8.13;;;5.10;1.00;;;;;;5121950;27;20943;-60
2021/01/08 06:05:15;;;;;;;10.23;8.33;;;4.90;1.00;;;;;;5120122;27;20831;-59
2021/01/08 06:07:46;;;;;;;10.50;7.27;;;4.80;1.00;;;;;;5120617;27;20568;-59
2021/01/08 06:10:15;;;;;;;10.73;7.73;;;4.80;1.00;;;;;;5121538;27;20510;-59
2021/01/08 06:12:42;;;;;;;9.90;7.57;;;4.80;1.00;;;;;;5118623;27;20442;-58
2021/01/08 06:15:11;;;;;;;10.90;7.37;;;4.70;1.00;;;;;;5119944;27;20435;-60
2021/01/08 06:17:38;;;;;;;16.00;11.67;;;4.70;1.00;;;;;;5122474;27;20423;-60
2021/01/08 06:20:05;;;;;;;10.00;8.10;;;4.80;1.00;;;;;;5121052;27;20431;-59
2021/01/08 06:22:38;;;;;;;11.67;9.20;;;4.80;1.00;;;;;;5123680;27;20481;-59
2021/01/08 06:25:05;;;;;;;13.07;10.40;;;4.90;1.00;;;;;;5113146;27;20453;-59
2021/01/08 06:27:33;;;;;;;12.17;9.33;;;4.90;1.00;;;;;;5122317;27;20430;-59
2021/01/08 06:30:01;;;;;;;10.73;7.50;;;4.90;1.00;;;;;;5131272;27;20511;-59
2021/01/08 06:32:29;;;;;;;18.13;15.20;;;4.90;1.00;;;;;;5130287;27;20439;-59
2021/01/08 06:35:06;;;;;;;12.47;9.30;;;5.00;1.00;;;;;;5124825;27;20976;-58
2021/01/08 06:37:42;;;;;;;9.13;8.10;;;4.90;1.00;;;;;;5112290;28;20439;-58
2021/01/08 06:40:10;;;;;;;8.43;7.13;;;4.90;1.00;;;;;;5118251;27;20454;-59
2021/01/08 06:42:52;;;;;;;11.63;8.67;;;4.90;1.00;;;;;;5121418;28;20455;-59
2021/01/08 06:45:20;;;;;;;12.47;8.17;;;4.90;1.00;;;;;;5128729;27;20463;-59
2021/01/08 06:47:47;;;;;;;12.57;9.43;;;4.90;1.00;;;;;;5117005;27;20432;-59
2021/01/08 06:50:16;;;;;;;10.20;9.07;;;4.90;1.00;;;;;;5122824;28;20732;-59
2021/01/08 06:52:45;;;;;;;10.10;7.77;;;4.90;1.00;;;;;;5124771;27;20499;-59
2021/01/08 06:55:18;;;;;;;9.87;7.90;;;4.90;1.00;;;;;;5121150;27;20517;-59
2021/01/08 06:57:54;;;;;;;11.43;8.73;;;4.80;1.00;;;;;;5123898;27;20924;-60
2021/01/08 07:00:29;;;;;;;13.00;8.77;;;4.80;1.00;;;;;;5117276;27;20446;-58
2021/01/08 07:03:01;;;;;;;11.07;8.33;;;4.80;1.00;;;;;;5130048;27;20452;-58
2021/01/08 07:05:26;;;;;;;12.33;9.00;;;4.90;1.00;;;;;;5124950;27;20845;-59
2021/01/08 07:07:54;;;;;;;9.30;7.70;;;4.80;1.00;;;;;;5126498;27;20731;-59
2021/01/08 07:10:20;;;;;;;11.13;8.90;;;4.90;1.00;;;;;;5121739;27;20203;-60
2021/01/08 07:12:51;;;;;;;12.60;8.70;;;5.00;1.00;;;;;;5130853;27;20435;-59
2021/01/08 07:15:19;;;;;;;11.63;8.53;;;5.00;1.00;;;;;;5116098;27;20627;-60
2021/01/08 07:17:44;;;;;;;11.50;9.20;;;4.90;1.00;;;;;;5121061;27;20750;-58
2021/01/08 07:20:11;;;;;;;13.40;9.33;;;4.90;1.00;;;;;;5122397;27;20446;-60
2021/01/08 07:22:38;;;;;;;10.70;7.70;;;4.90;1.00;;;;;;5115822;27;20197;-59
2021/01/08 07:25:06;;;;;;;10.43;8.63;;;4.90;1.00;;;;;;5126132;27;20451;-58
2021/01/08 07:27:34;;;;;;;11.27;8.00;;;5.10;1.00;;;;;;5130358;27;20518;-59
2021/01/08 07:30:01;;;;;;;9.17;7.63;;;4.90;1.00;;;;;;5123695;27;20933;-59
2021/01/08 07:32:36;;;;;;;10.50;8.20;;;4.90;1.00;;;;;;5123915;27;20490;-59
2021/01/08 07:35:25;;;;;;;10.03;8.03;;;4.90;1.00;;;;;;5118198;27;20430;-59
2021/01/08 07:38:08;;;;;;;12.73;9.10;;;4.90;1.00;;;;;;5123257;27;20950;-59
2021/01/08 07:40:49;;;;;;;10.17;8.20;;;4.90;1.00;;;;;;5125375;27;20523;-59
2021/01/08 07:43:16;;;;;;;9.90;8.43;;;5.00;1.00;;;;;;5127967;27;21001;-59
2021/01/08 07:45:56;;;;;;;9.73;8.00;;;5.00;1.00;;;;;;5131342;27;20519;-59
2021/01/08 07:48:34;;;;;;;13.53;8.17;;;5.00;1.00;;;;;;5123304;27;20436;-59
2021/01/08 07:51:10;;;;;;;12.73;9.10;;;5.10;1.00;;;;;;5119975;27;20478;-59
2021/01/08 07:53:50;;;;;;;12.90;9.30;;;5.20;1.00;;;;;;5126836;27;20525;-60
2021/01/08 07:56:19;;;;;;;12.23;8.90;;;5.10;1.00;;;;;;5130577;27;20470;-59
2021/01/08 07:58:47;;;;;;;12.07;8.87;;;5.10;1.00;;;;;;5120331;27;20924;-59
2021/01/08 08:01:15;;;;;;;12.37;9.17;;;5.20;1.00;;;;;;5125306;27;20971;-59
2021/01/08 08:03:41;;;;;;;13.97;8.40;;;5.00;1.00;;;;;;5121124;27;20527;-58
2021/01/08 08:06:08;;;;;;;11.80;9.37;;;5.00;1.00;;;;;;5122784;27;20844;-59
2021/01/08 08:08:40;;;;;;;13.90;9.53;;;5.00;1.00;;;;;;5119311;27;20430;-58
2021/01/08 08:11:13;;;;;;;15.37;8.97;;;5.10;1.00;;;;;;5122579;27;20439;-59
2021/01/08 08:13:40;;;;;;;12.80;9.30;;;5.00;1.00;;;;;;5118450;27;20444;-58
2021/01/08 08:16:06;;;;;;;13.30;9.80;;;5.00;1.00;;;;;;5127069;27;20435;-59
2021/01/08 08:18:32;;;;;;;11.43;8.53;;;5.00;1.00;;;;;;5126808;27;20950;-59
2021/01/08 08:21:11;;;;;;;14.40;10.50;;;5.00;1.00;;;;;;5121378;27;20473;-58
2021/01/08 08:23:37;;;;;;;10.37;9.00;;;5.10;1.00;;;;;;5103161;28;20871;-58
2021/01/08 08:26:04;;;;;;;12.00;9.47;;;5.10;1.00;;;;;;5127536;27;20489;-59
2021/01/08 08:28:30;;;;;;;11.20;9.53;;;5.10;1.00;;;;;;5130961;27;20442;-59
2021/01/08 08:30:56;;;;;;;14.53;9.73;;;5.20;1.00;;;;;;5122462;27;20459;-59
2021/01/08 08:33:23;;;;;;;14.40;10.50;;;5.10;1.00;;;;;;5122767;27;20182;-59
2021/01/08 08:35:50;;;;;;;11.70;8.80;;;5.30;1.00;;;;;;5123805;27;20440;-58
2021/01/08 08:38:15;;;;;;;11.93;9.50;;;5.10;1.00;;;;;;5130386;27;20524;-58
2021/01/08 08:40:41;;;;;;;13.93;10.17;;;5.20;1.00;;;;;;5129030;27;20604;-58
2021/01/08 08:43:08;;;;;;;11.73;9.17;;;5.20;1.00;;;;;;5115159;27;20710;-59
2021/01/08 08:45:35;;;;;;;11.90;9.40;;;5.20;1.00;;;;;;5122502;27;20430;-59
2021/01/08 08:48:07;;;;;;;13.30;10.33;;;5.20;1.00;;;;;;5126149;27;20431;-59
2021/01/08 08:50:33;;;;;;;13.57;9.70;;;5.20;1.00;;;;;;5118241;27;20793;-59
2021/01/08 08:53:15;;;;;;;12.00;9.20;;;5.20;1.00;;;;;;5124100;27;20936;-59
2021/01/08 08:55:41;;;;;;;12.27;9.50;;;5.10;1.00;;;;;;5120605;27;20440;-58
2021/01/08 08:58:10;;;;;;;15.13;9.70;;;5.10;1.00;;;;;;5115826;27;20432;-61
2021/01/08 09:00:40;;;;;;;13.90;10.33;;;5.10;1.00;;;;;;5121689;27;20514;-58
2021/01/08 09:03:20;;;;;;;15.07;12.23;;;5.10;1.00;;;;;;5115849;27;20435;-60
2021/01/08 09:05:50;;;;;;;14.43;9.83;;;5.20;1.00;;;;;;5121188;27;20432;-59
2021/01/08 09:08:26;;;;;;;12.80;9.70;;;5.30;1.00;;;;;;5121425;27;20419;-59
2021/01/08 09:10:57;;;;;;;17.53;11.37;;;5.30;1.00;;;;;;5123502;27;20441;-58
2021/01/08 09:13:34;;;;;;;13.67;10.03;;;5.30;1.00;;;;;;5104903;28;21034;-59
2021/01/08 09:16:09;;;;;;;14.13;10.10;;;5.30;1.00;;;;;;5121470;27;20427;-60
2021/01/08 09:18:48;;;;;;;17.83;11.07;;;5.30;1.00;;;;;;5125390;27;20570;-59
2021/01/08 09:21:21;;;;;;;11.50;9.10;;;5.40;1.00;;;;;;5120209;27;20447;-59
2021/01/08 09:23:49;;;;;;;10.70;8.73;;;5.60;1.00;;;;;;5121258;27;20487;-59
2021/01/08 09:26:17;;;;;;;11.60;8.50;;;5.60;1.00;;;;;;5117427;27;20521;-58
2021/01/08 09:28:50;;;;;;;8.67;7.30;;;5.60;1.00;;;;;;5118975;27;20428;-60
2021/01/08 09:31:16;;;;;;;9.30;7.90;;;5.70;1.00;;;;;;5124517;27;20951;-59
2021/01/08 09:33:54;;;;;;;10.33;8.67;;;5.70;1.00;;;;;;5125494;27;20682;-59
2021/01/08 09:36:31;;;;;;;9.97;8.23;;;5.80;1.00;;;;;;5123354;27;20475;-59
2021/01/08 09:38:59;;;;;;;10.03;8.23;;;5.70;1.00;;;;;;5131735;27;20449;-58
2021/01/08 09:41:25;;;;;;;9.10;8.10;;;5.70;1.00;;;;;;5118604;27;20455;-59
2021/01/08 09:43:58;;;;;;;8.63;7.73;;;5.80;1.00;;;;;;5125964;27;20869;-60
2021/01/08 09:46:23;;;;;;;10.00;8.60;;;5.80;1.00;;;;;;5119418;27;20642;-59
2021/01/08 09:48:49;;;;;;;13.67;9.60;;;5.80;1.00;;;;;;5113308;28;20425;-59
2021/01/08 09:51:15;;;;;;;10.73;7.67;;;5.80;1.00;;;;;;5112858;28;20186;-58
2021/01/08 09:53:41;;;;;;;10.33;7.93;;;;;;;;;;5112565;28;20544;-58
2021/01/08 09:56:13;;;;;;;10.60;7.70;;;5.70;1.00;;;;;;5119638;27;20535;-59
2021/01/08 09:58:39;;;;;;;9.90;8.10;;;5.80;1.00;;;;;;5133148;27;20980;-59
2021/01/08 10:01:06;;;;;;;9.33;8.00;;;5.90;1.00;;;;;;5126967;27;20462;-58
2021/01/08 10:03:31;;;;;;;10.00;8.33;;;5.80;1.00;;;;;;5112103;28;20178;-59
2021/01/08 10:06:10;;;;;;;10.47;8.03;;;5.70;1.00;;;;;;5118502;27;20777;-59
2021/01/08 10:08:37;;;;;;;8.10;7.07;;;5.70;1.00;;;;;;5115702;27;20254;-59
2021/01/08 10:11:05;;;;;;;11.60;7.50;;;5.80;1.00;;;;;;5130181;27;20995;-59
2021/01/08 10:13:32;;;;;;;9.70;8.07;;;5.80;1.00;;;;;;5126722;27;20470;-59
2021/01/08 10:16:05;;;;;;;11.30;8.67;;;6.00;1.00;;;;;;5126626;27;20484;-59
2021/01/08 10:18:37;;;;;;;8.17;7.37;;;5.90;1.00;;;;;;5121636;27;20482;-59
2021/01/08 10:21:07;;;;;;;12.30;7.67;;;5.90;1.00;;;;;;5120836;27;21004;-60
2021/01/08 10:23:43;;;;;;;8.73;7.37;;;5.80;1.00;;;;;;5121234;27;20442;-60
2021/01/08 10:26:14;;;;;;;11.43;8.93;;;5.80;1.00;;;;;;5121916;27;20426;-59
2021/01/08 10:28:56;;;;;;;8.60;7.10;;;5.70;1.00;;;;;;5112736;27;20443;-59
2021/01/08 10:31:23;;;;;;;9.83;7.83;;;5.70;1.00;;;;;;5106285;27;20967;-60
2021/01/08 10:33:50;;;;;;;10.63;8.73;;;5.70;1.00;;;;;;5132362;27;20923;-58
2021/01/08 10:36:16;;;;;;;9.20;8.03;;;5.80;1.00;;;;;;5126775;27;20441;-59
2021/01/08 10:38:42;;;;;;;9.80;7.37;;;5.70;1.00;;;;;;5119124;27;20935;-59
2021/01/08 10:41:08;;;;;;;11.50;8.00;;;5.70;1.00;;;;;;5121334;28;20468;-59
2021/01/08 10:43:34;;;;;;;8.67;7.83;;;5.70;1.00;;;;;;5128637;28;20434;-60
2021/01/08 10:46:03;;;;;;;9.30;8.10;;;5.80;1.00;;;;;;5126768;28;20468;-59
2021/01/08 10:48:30;;;;;;;7.53;6.83;;;5.70;1.00;;;;;;5127094;28;20921;-60
2021/01/08 10:50:56;;;;;;;10.50;8.50;;;5.50;1.00;;;;;;5113316;28;20409;-59
2021/01/08 10:53:22;;;;;;;10.53;8.23;;;5.40;1.00;;;;;;5116118;27;20997;-59
2021/01/08 10:55:48;;;;;;;10.63;7.77;;;;;;;;;;5113620;28;20435;-60
2021/01/08 10:58:15;;;;;;;10.37;8.77;;;5.20;1.00;;;;;;5116428;28;20200;-59
2021/01/08 11:00:43;;;;;;;9.37;7.20;;;5.20;1.00;;;;;;5116876;28;20567;-60
2021/01/08 11:03:09;;;;;;;11.33;7.80;;;5.20;1.00;;;;;;5125080;28;20427;-59
2021/01/08 11:05:38;;;;;;;8.00;7.17;;;5.10;1.00;;;;;;5132595;27;20458;-58
2021/01/08 11:08:04;;;;;;;10.00;7.70;;;5.10;1.00;;;;;;5116679;27;20942;-59
2021/01/08 11:10:30;;;;;;;10.90;7.87;;;5.00;1.00;;;;;;5116749;28;20445;-58
2021/01/08 11:12:55;;;;;;;9.50;8.03;;;5.10;1.00;;;;;;5114531;28;20438;-58
2021/01/08 11:15:22;;;;;;;8.63;7.70;;;5.10;1.00;;;;;;5123420;28;20201;-58
2021/01/08 11:17:48;;;;;;;8.90;8.00;;;5.10;1.00;;;;;;5120492;28;20171;-60
2021/01/08 11:20:14;;;;;;;10.00;8.00;;;5.10;1.00;;;;;;5110640;28;20970;-58
2021/01/08 11:22:40;;;;;;;8.67;6.83;;;5.10;1.00;;;;;;5121270;28;20317;-59
2021/01/08 11:25:06;;;;;;;8.40;7.00;;;5.80;1.00;;;;;;5111776;28;20434;-59
2021/01/08 11:27:32;;;;;;;10.07;7.93;;;5.20;1.00;;;;;;5112837;28;20535;-58
2021/01/08 11:29:58;;;;;;;8.33;7.20;;;5.20;1.00;;;;;;5129978;28;20455;-58
2021/01/08 11:32:23;;;;;;;8.13;7.33;;;5.30;1.00;;;;;;5131082;28;20297;-60
2021/01/08 11:34:49;;;;;;;8.10;7.00;;;5.30;1.00;;;;;;5113140;28;20583;-62
2021/01/08 11:37:14;;;;;;;7.83;7.03;;;5.30;1.00;;;;;;5110610;28;20280;-60
2021/01/08 11:39:41;;;;;;;9.53;7.87;;;5.20;1.00;;;;;;5115142;27;20222;-58
2021/01/08 11:42:07;;;;;;;8.60;6.90;;;5.20;1.00;;;;;;5134690;27;20282;-59
2021/01/08 11:44:32;;;;;;;8.00;6.93;;;5.30;1.00;;;;;;5126068;27;20441;-60
2021/01/08 11:46:58;;;;;;;8.77;6.77;;;5.40;1.00;;;;;;5122864;27;20410;-58
2021/01/08 11:49:24;;;;;;;8.30;5.43;;;5.50;1.00;;;;;;5129496;27;20187;-58
2021/01/08 11:51:49;;;;;;;11.63;6.63;;;5.60;1.00;;;;;;5135814;27;20174;-59
2021/01/08 11:54:15;;;;;;;7.70;6.70;;;5.70;1.00;;;;;;5135523;27;20185;-58
2021/01/08 11:56:41;;;;;;;7.90;6.33;;;5.70;1.00;;;;;;5116482;27;20220;-57
2021/01/08 11:59:06;;;;;;;8.70;6.60;;;5.50;1.00;;;;;;5117118;27;20723;-59
2021/01/08 12:01:33;;;;;;;8.03;6.67;;;5.40;1.00;;;;;;5113650;28;20340;-59
2021/01/08 12:04:00;;;;;;;12.53;6.57;;;5.50;1.00;;;;;;5115187;28;20192;-59
2021/01/08 12:06:29;;;;;;;7.03;6.33;;;5.50;1.00;;;;;;5127221;27;20426;-59
2021/01/08 12:08:56;;;;;;;7.80;6.73;;;5.40;1.00;;;;;;5135400;27;20504;-59
2021/01/08 12:11:23;;;;;;;7.10;6.30;;;5.30;1.00;;;;;;5127621;27;20431;-60
2021/01/08 12:13:49;;;;;;;9.03;6.67;;;5.30;1.00;;;;;;5135332;27;20510;-57
2021/01/08 12:16:22;;;;;;;7.93;6.93;;;5.30;1.00;;;;;;5135085;27;20435;-58
2021/01/08 12:18:47;;;;;;;7.70;6.90;;;5.40;1.00;;;;;;5125513;27;20196;-58
2021/01/08 12:21:13;;;;;;;7.97;7.10;;;5.10;1.00;;;;;;5133852;27;20484;-59
2021/01/08 12:23:39;;;;;;;6.80;6.10;;;5.10;1.00;;;;;;5118544;27;20179;-58
2021/01/08 12:26:04;;;;;;;7.50;6.20;;;5.20;1.00;;;;;;5120632;27;20260;-60
2021/01/08 12:28:30;;;;;;;8.27;6.70;;;5.20;1.00;;;;;;5130347;27;20191;-59
2021/01/08 12:30:55;;;;;;;9.93;7.30;;;5.20;1.00;;;;;;5127642;27;20693;-59
2021/01/08 12:33:21;;;;;;;8.83;7.73;;;5.40;1.00;;;;;;5124731;27;20186;-58
2021/01/08 12:35:47;;;;;;;8.83;6.93;;;5.30;1.00;;;;;;5124911;27;20178;-58
2021/01/08 12:38:13;;;;;;;6.90;6.20;;;;;;;;;;5113153;27;20268;-58
2021/01/08 12:40:39;;;;;;;7.50;6.10;;;5.00;1.00;;;;;;5111940;28;20263;-57
2021/01/08 12:43:04;;;;;;;7.80;6.30;;;5.00;1.00;;;;;;5112302;28;20933;-59
2021/01/08 12:45:30;;;;;;;7.27;6.23;;;5.10;1.00;;;;;;5112455;28;20702;-59
2021/01/08 12:47:55;;;;;;;8.03;6.80;;;5.10;1.00;;;;;;5111842;27;20166;-58
2021/01/08 12:50:21;;;;;;;7.53;6.03;;;5.20;1.00;;;;;;5110506;28;20633;-61
2021/01/08 12:52:47;;;;;;;8.30;7.00;;;;;;;;;;5111926;27;20196;-60
2021/01/08 12:55:13;;;;;;;9.17;6.63;;;5.30;1.00;;;;;;5111771;28;20190;-59
2021/01/08 12:57:39;;;;;;;6.83;6.13;;;5.20;1.00;;;;;;5112135;28;20932;-61
2021/01/08 13:00:09;;;;;;;6.60;5.93;;;3.60;1.00;;;;;;5112021;28;20448;-59
2021/01/08 13:02:35;;;;;;;10.33;6.77;;;5.10;1.00;;;;;;5112309;28;20204;-59
2021/01/08 13:05:01;;;;;;;6.30;5.60;;;5.00;1.00;;;;;;5113793;27;20443;-59
2021/01/08 13:07:26;;;;;;;6.57;5.70;;;5.10;1.00;;;;;;5111660;28;20182;-59
2021/01/08 13:09:52;;;;;;;7.70;6.97;;;5.30;1.00;;;;;;5112498;28;20189;-60